Decoded Metar for LFMK (Carcassonne in FRANCE) (IATA:CCF) | Meteo·Mobile Aviation Weather
aviador You're here:

LFMK Decoded Metar

Carcassonne in FRANCE
Report Time2018-08-21 16:00:00
UTC Time2018-08-21 16:06:59
Flight Rules vfr VFR
Wind280° at 10 kt
W.Decomp.*RWY 28: 10.0 kt HW 0 kt LCW
W.Rank280° ranks 1
Current wind is below 280° avg. (10.3)
Visibility9999 m
Phenomena:N/A
Clouds:N/A
Expected CloudBase > 6,800 ft AGL from Temp-Dew spread
CeilingNone
Temp32°C (ISA +18)
Dew Point15°C (36% RH)
Heat Index31.6°C
AAT30.0°C
QNH1014 hPa
Density Alt2,657 ft
Elevation427 ft
Report Wrong Elevation
Raw Report
METAR LFMK 211600Z AUTO 28010KT 240V320 CAVOK 32/15 Q1014 NOSIG=

Extra information for LFMK:More info

Metar Taf Metar & Taf Last 4 Metars F.Rules Stats Wind Profile Meteogram Temp Stats Airport Information Weather charts Add Link Nearby VenuesMetar ALERT Operation Metar Decoded Social comments

AudeAéroServices
Aéroprakt A-22
Husky Dealer